createdAt,value
2018-06-30T00:00:04.109Z,97697.13
2018-06-30T00:00:35.713Z,97701.42
2018-06-30T00:01:07.313Z,97698.06
2018-06-30T00:01:38.916Z,97698.06
2018-06-30T00:02:10.525Z,97695.52
2018-06-30T00:02:42.113Z,97694.67
2018-06-30T00:03:13.717Z,97701.59
2018-06-30T00:03:45.316Z,97705.88
2018-06-30T00:04:16.909Z,97708.47
2018-06-30T00:04:48.533Z,97705.90
2018-06-30T00:05:20.123Z,97699.56
2018-06-30T00:05:51.709Z,97707.25
2018-06-30T00:06:23.284Z,97703.84
2018-06-30T00:06:54.885Z,97703.84
2018-06-30T00:07:26.468Z,97706.86
2018-06-30T00:07:58.078Z,97707.72
2018-06-30T00:08:29.656Z,97707.30
2018-06-30T00:09:01.248Z,97700.91
2018-06-30T00:09:32.824Z,97711.22
2018-06-30T00:10:04.425Z,97697.11
2018-06-30T00:10:36.033Z,97707.79
2018-06-30T00:11:07.617Z,97700.54
2018-06-30T00:11:39.202Z,97707.37
2018-06-30T00:12:10.785Z,97702.69
2018-06-30T00:12:42.388Z,97703.98
2018-06-30T00:13:13.988Z,97708.25
2018-06-30T00:13:45.604Z,97705.27
2018-06-30T00:14:17.200Z,97708.27
2018-06-30T00:14:48.811Z,97704.43
2018-06-30T00:15:20.421Z,97702.72
2018-06-30T00:15:51.996Z,97704.06
2018-06-30T00:16:23.568Z,97707.47
2018-06-30T00:16:55.200Z,97700.21
2018-06-30T00:17:26.845Z,97704.90
2018-06-30T00:17:58.419Z,97707.48
2018-06-30T00:18:30.016Z,97703.22
2018-06-30T00:19:01.601Z,97710.91
2018-06-30T00:19:33.182Z,97705.36
2018-06-30T00:20:04.765Z,97709.21
2018-06-30T00:20:36.340Z,97712.22
2018-06-30T00:21:07.972Z,97710.94
2018-06-30T00:21:39.558Z,97710.95
2018-06-30T00:22:11.138Z,97707.95
2018-06-30T00:22:42.741Z,97709.66
2018-06-30T00:23:14.331Z,97713.50
2018-06-30T00:23:45.920Z,97709.21
2018-06-30T00:24:17.529Z,97710.07
2018-06-30T00:24:49.118Z,97716.05
2018-06-30T00:25:20.688Z,97714.32
2018-06-30T00:25:52.276Z,97716.89
2018-06-30T00:26:23.926Z,97716.91
2018-06-30T00:26:55.516Z,97712.62
2018-06-30T00:27:27.121Z,97709.21
2018-06-30T00:27:58.729Z,97707.06
2018-06-30T00:28:30.353Z,97711.76
2018-06-30T00:29:01.938Z,97710.47
2018-06-30T00:29:33.517Z,97713.91
2018-06-30T00:30:05.124Z,97711.33
2018-06-30T00:30:36.720Z,97714.77
2018-06-30T00:31:08.306Z,97708.77
2018-06-30T00:31:39.895Z,97719.47
2018-06-30T00:32:11.505Z,97711.78
2018-06-30T00:32:43.108Z,97718.17
2018-06-30T00:33:14.680Z,97715.63
2018-06-30T00:33:46.276Z,97719.45
2018-06-30T00:34:17.885Z,97720.31
2018-06-30T00:34:49.484Z,97715.63
2018-06-30T00:35:21.128Z,97715.20
2018-06-30T00:35:52.704Z,97719.47
2018-06-30T00:36:24.300Z,97717.77
2018-06-30T00:36:55.909Z,97717.77
2018-06-30T00:37:27.562Z,97715.60
2018-06-30T00:37:59.229Z,97720.31
2018-06-30T00:38:30.833Z,97719.45
2018-06-30T00:39:02.454Z,97716.45
2018-06-30T00:39:34.038Z,97722.44
2018-06-30T00:40:05.622Z,97720.73
2018-06-30T00:40:37.215Z,97720.75
2018-06-30T00:41:08.822Z,97718.61
2018-06-30T00:41:40.477Z,97721.17
2018-06-30T00:42:12.065Z,97724.61
2018-06-30T00:42:43.669Z,97719.91
2018-06-30T00:43:15.300Z,97732.32
2018-06-30T00:43:46.881Z,97719.91
2018-06-30T00:44:18.476Z,97728.47
2018-06-30T00:44:50.052Z,97719.56
2018-06-30T00:45:21.620Z,97727.69
2018-06-30T00:45:53.222Z,97729.83
2018-06-30T00:46:24.814Z,97729.83
2018-06-30T00:46:56.401Z,97734.54
2018-06-30T00:47:28.021Z,97731.55
2018-06-30T00:47:59.595Z,97734.12
2018-06-30T00:48:31.229Z,97730.72
2018-06-30T00:49:02.869Z,97731.98
2018-06-30T00:49:34.443Z,97726.42
2018-06-30T00:50:06.045Z,97729.85
2018-06-30T00:50:37.626Z,97734.56
2018-06-30T00:51:09.230Z,97722.16
2018-06-30T00:51:40.846Z,97727.73
2018-06-30T00:52:12.434Z,97730.73
2018-06-30T00:52:44.004Z,97732.86
2018-06-30T00:53:15.613Z,97733.30
2018-06-30T00:53:47.217Z,97729.45
2018-06-30T00:54:18.826Z,97738.06
2018-06-30T00:54:50.407Z,97728.22
2018-06-30T00:55:21.990Z,97733.39
2018-06-30T00:55:53.564Z,97732.95
2018-06-30T00:56:25.139Z,97731.67
2018-06-30T00:56:56.711Z,97731.67
2018-06-30T00:57:28.358Z,97734.67
2018-06-30T00:57:59.966Z,97729.52
2018-06-30T00:58:31.549Z,97737.15
2018-06-30T00:59:03.134Z,97737.51
2018-06-30T00:59:34.741Z,97739.56
2018-06-30T01:00:06.328Z,97742.97
2018-06-30T01:00:37.933Z,97737.36
2018-06-30T01:01:09.551Z,97745.48
2018-06-30T01:01:41.133Z,97740.33
2018-06-30T01:02:12.738Z,97736.97
2018-06-30T01:02:44.342Z,97742.48
2018-06-30T01:03:15.939Z,97743.41
2018-06-30T01:03:47.537Z,97741.62
2018-06-30T01:04:19.117Z,97740.25
2018-06-30T01:04:50.688Z,97741.89
2018-06-30T01:05:22.316Z,97737.97
2018-06-30T01:05:53.933Z,97746.86
2018-06-30T01:06:25.508Z,97738.72
2018-06-30T01:06:57.089Z,97754.88
2018-06-30T01:07:28.674Z,97747.63
2018-06-30T01:08:00.276Z,97746.75
2018-06-30T01:08:31.907Z,97746.31
2018-06-30T01:09:03.520Z,97748.90
2018-06-30T01:09:35.110Z,97750.61
2018-06-30T01:10:06.690Z,97745.90
2018-06-30T01:10:38.313Z,97750.61
2018-06-30T01:11:09.888Z,97748.54
2018-06-30T01:11:41.494Z,97747.68
2018-06-30T01:12:13.083Z,97748.45
2018-06-30T01:12:44.669Z,97749.45
2018-06-30T01:13:16.273Z,97740.17
2018-06-30T01:13:47.930Z,97742.85
2018-06-30T01:14:19.604Z,97739.58
2018-06-30T01:14:51.209Z,97740.19
2018-06-30T01:15:22.780Z,97743.62
2018-06-30T01:15:54.466Z,97743.98
2018-06-30T01:16:26.060Z,97750.80
2018-06-30T01:16:57.665Z,97742.22
2018-06-30T01:17:29.243Z,97742.59
2018-06-30T01:18:00.849Z,97738.28
2018-06-30T01:18:32.504Z,97740.84
2018-06-30T01:19:04.114Z,97738.22
2018-06-30T01:19:35.701Z,97744.59
2018-06-30T01:20:07.284Z,97739.05
2018-06-30T01:20:38.873Z,97747.55
2018-06-30T01:21:10.459Z,97745.82
2018-06-30T01:21:42.041Z,97743.23
2018-06-30T01:22:13.669Z,97747.08
2018-06-30T01:22:45.282Z,97747.50
2018-06-30T01:23:16.865Z,97744.94
2018-06-30T01:23:48.440Z,97750.91
2018-06-30T01:24:20.022Z,97748.78
2018-06-30T01:24:51.616Z,97748.78
2018-06-30T01:25:23.214Z,97748.36
2018-06-30T01:25:54.826Z,97752.22
2018-06-30T01:26:26.489Z,97748.34
2018-06-30T01:26:58.069Z,97750.91
2018-06-30T01:27:29.675Z,97756.86
2018-06-30T01:28:01.281Z,97753.05
2018-06-30T01:28:32.860Z,97746.98
2018-06-30T01:29:04.482Z,97749.16
2018-06-30T01:29:36.061Z,97747.01
2018-06-30T01:30:07.666Z,97748.73
2018-06-30T01:30:39.271Z,97749.16
2018-06-30T01:31:10.909Z,97748.71
2018-06-30T01:31:42.527Z,97747.01
2018-06-30T01:32:14.177Z,97749.65
2018-06-30T01:32:45.785Z,97748.36
2018-06-30T01:33:17.397Z,97750.55
2018-06-30T01:33:48.972Z,97743.31
2018-06-30T01:34:20.563Z,97745.05
2018-06-30T01:34:52.136Z,97742.49
2018-06-30T01:35:23.717Z,97746.77
2018-06-30T01:35:55.302Z,97745.90
2018-06-30T01:36:26.906Z,97747.61
2018-06-30T01:36:58.522Z,97748.03
2018-06-30T01:37:30.182Z,97745.03
2018-06-30T01:38:01.781Z,97748.46
2018-06-30T01:38:33.370Z,97747.59
2018-06-30T01:39:04.977Z,97742.91
2018-06-30T01:39:36.590Z,97749.27
2018-06-30T01:40:08.178Z,97748.88
2018-06-30T01:40:39.785Z,97746.69
2018-06-30T01:41:11.394Z,97743.25
2018-06-30T01:41:42.968Z,97749.65
2018-06-30T01:42:14.553Z,97750.93
2018-06-30T01:42:46.193Z,97754.28
2018-06-30T01:43:17.767Z,97750.91
2018-06-30T01:43:49.378Z,97747.92
2018-06-30T01:44:20.974Z,97755.15
2018-06-30T01:44:52.577Z,97750.91
2018-06-30T01:45:24.156Z,97754.27
2018-06-30T01:45:55.753Z,97758.55
2018-06-30T01:46:27.356Z,97756.05
2018-06-30T01:46:58.923Z,97757.71
2018-06-30T01:47:30.524Z,97760.28
2018-06-30T01:48:02.158Z,97750.07
2018-06-30T01:48:33.761Z,97759.47
2018-06-30T01:49:05.372Z,97759.49
2018-06-30T01:49:36.983Z,97759.05
2018-06-30T01:50:08.560Z,97760.78
2018-06-30T01:50:40.165Z,97758.61
2018-06-30T01:51:11.757Z,97762.91
2018-06-30T01:51:43.354Z,97762.45
2018-06-30T01:52:14.927Z,97758.19
2018-06-30T01:52:46.560Z,97762.84
2018-06-30T01:53:18.149Z,97761.97
2018-06-30T01:53:49.753Z,97767.96
2018-06-30T01:54:21.366Z,97758.53
2018-06-30T01:54:53.018Z,97753.42
2018-06-30T01:55:24.605Z,97762.41
2018-06-30T01:55:56.180Z,97761.56
2018-06-30T01:56:27.785Z,97759.42
2018-06-30T01:56:59.397Z,97759.42
2018-06-30T01:57:30.981Z,97761.98
2018-06-30T01:58:02.566Z,97763.69
2018-06-30T01:58:34.169Z,97755.99
2018-06-30T01:59:05.769Z,97754.34
2018-06-30T01:59:37.436Z,97759.47
2018-06-30T02:00:09.034Z,97759.05
2018-06-30T02:00:40.665Z,97759.07
2018-06-30T02:01:12.277Z,97759.91
2018-06-30T02:01:43.851Z,97765.89
2018-06-30T02:02:15.444Z,97764.60
2018-06-30T02:02:47.039Z,97758.14
2018-06-30T02:03:18.647Z,97759.47
2018-06-30T02:03:50.253Z,97760.68
2018-06-30T02:04:21.858Z,97767.86
2018-06-30T02:04:53.486Z,97769.15
2018-06-30T02:05:25.137Z,97763.99
2018-06-30T02:05:56.711Z,97768.29
2018-06-30T02:06:28.337Z,97766.14
2018-06-30T02:06:59.946Z,97761.87
2018-06-30T02:07:31.544Z,97769.59
2018-06-30T02:08:03.149Z,97772.65
2018-06-30T02:08:34.762Z,97765.84
2018-06-30T02:09:06.349Z,97768.47
2018-06-30T02:09:37.985Z,97772.75
2018-06-30T02:10:09.555Z,97775.75
2018-06-30T02:10:41.157Z,97770.64
2018-06-30T02:11:12.749Z,97770.64
2018-06-30T02:11:44.330Z,97773.69
2018-06-30T02:12:15.917Z,97769.44
2018-06-30T02:12:47.497Z,97771.98
2018-06-30T02:13:19.101Z,97778.42
2018-06-30T02:13:50.679Z,97770.72
2018-06-30T02:14:22.281Z,97776.33
2018-06-30T02:14:53.900Z,97773.78
2018-06-30T02:15:25.545Z,97771.66
2018-06-30T02:15:57.134Z,97779.36
2018-06-30T02:16:28.746Z,97772.94
2018-06-30T02:17:00.324Z,97775.86
2018-06-30T02:17:31.934Z,97779.70
2018-06-30T02:18:03.518Z,97774.13
2018-06-30T02:18:35.093Z,97774.05
2018-06-30T02:19:06.701Z,97780.89
2018-06-30T02:19:38.289Z,97779.62
2018-06-30T02:20:09.934Z,97776.64
2018-06-30T02:20:41.532Z,97777.11
2018-06-30T02:21:13.137Z,97778.39
2018-06-30T02:21:44.809Z,97781.39
2018-06-30T02:22:16.361Z,97783.97
2018-06-30T02:22:48.000Z,97779.70
2018-06-30T02:23:19.665Z,97780.56
2018-06-30T02:23:51.251Z,97782.34
2018-06-30T02:24:22.829Z,97773.83
2018-06-30T02:24:54.435Z,97782.78
2018-06-30T02:25:26.041Z,97780.71
2018-06-30T02:25:57.625Z,97784.98
2018-06-30T02:26:29.206Z,97778.16
2018-06-30T02:27:00.814Z,97782.87
2018-06-30T02:27:32.396Z,97779.89
2018-06-30T02:28:03.981Z,97782.90
2018-06-30T02:28:35.605Z,97770.48
2018-06-30T02:29:07.202Z,97779.47
2018-06-30T02:29:38.782Z,97785.86
2018-06-30T02:30:10.386Z,97780.38
2018-06-30T02:30:41.978Z,97778.62
2018-06-30T02:31:13.561Z,97790.17
2018-06-30T02:31:45.197Z,97786.80
2018-06-30T02:32:16.830Z,97791.02
2018-06-30T02:32:48.441Z,97788.89
2018-06-30T02:33:20.030Z,97788.08
2018-06-30T02:33:51.624Z,97784.67
2018-06-30T02:34:23.224Z,97787.68
2018-06-30T02:34:54.837Z,97789.83
2018-06-30T02:35:26.450Z,97780.87
2018-06-30T02:35:58.062Z,97785.98
2018-06-30T02:36:29.668Z,97785.55
2018-06-30T02:37:01.312Z,97788.56
2018-06-30T02:37:32.906Z,97789.41
2018-06-30T02:38:04.571Z,97788.56
2018-06-30T02:38:36.150Z,97788.61
2018-06-30T02:39:07.815Z,97790.29
2018-06-30T02:39:39.385Z,97790.76
2018-06-30T02:40:10.970Z,97801.44
2018-06-30T02:40:42.565Z,97792.85
2018-06-30T02:41:14.146Z,97799.31
2018-06-30T02:41:45.715Z,97794.19
2018-06-30T02:42:17.285Z,97794.61
2018-06-30T02:42:48.894Z,97793.78
2018-06-30T02:43:20.472Z,97792.06
2018-06-30T02:43:52.054Z,97795.05
2018-06-30T02:44:23.647Z,97796.75
2018-06-30T02:44:55.268Z,97796.77
2018-06-30T02:45:26.844Z,97800.18
2018-06-30T02:45:58.524Z,97800.20
2018-06-30T02:46:30.074Z,97804.47
2018-06-30T02:47:01.656Z,97808.73
2018-06-30T02:47:33.249Z,97797.63
2018-06-30T02:48:04.858Z,97803.61
2018-06-30T02:48:36.441Z,97804.47
2018-06-30T02:49:08.036Z,97800.20
2018-06-30T02:49:39.644Z,97804.03
2018-06-30T02:50:11.223Z,97807.90
2018-06-30T02:50:42.805Z,97804.91
2018-06-30T02:51:14.389Z,97796.35
2018-06-30T02:51:45.974Z,97804.49
2018-06-30T02:52:17.585Z,97804.47
2018-06-30T02:52:49.183Z,97803.20
2018-06-30T02:53:20.794Z,97808.73
2018-06-30T02:53:52.378Z,97806.25
2018-06-30T02:54:24.012Z,97801.11
2018-06-30T02:54:55.621Z,97809.18
2018-06-30T02:55:27.205Z,97803.63
2018-06-30T02:55:58.843Z,97806.25
2018-06-30T02:56:30.422Z,97805.77
2018-06-30T02:57:02.042Z,97805.35
2018-06-30T02:57:33.636Z,97813.52
2018-06-30T02:58:05.212Z,97805.83
2018-06-30T02:58:36.794Z,97810.95
2018-06-30T02:59:08.433Z,97808.83
2018-06-30T02:59:40.004Z,97810.11
2018-06-30T03:00:11.583Z,97810.11
2018-06-30T03:00:43.156Z,97810.55
2018-06-30T03:01:14.797Z,97811.86
2018-06-30T03:01:46.378Z,97814.84
2018-06-30T03:02:17.949Z,97816.97
2018-06-30T03:02:49.609Z,97814.84
2018-06-30T03:03:21.189Z,97816.55
2018-06-30T03:03:52.780Z,97810.99
2018-06-30T03:04:24.356Z,97816.13
2018-06-30T03:04:55.973Z,97815.69
2018-06-30T03:05:27.529Z,97815.27
2018-06-30T03:05:59.109Z,97815.70
2018-06-30T03:06:30.695Z,97815.70
2018-06-30T03:07:02.307Z,97822.19
2018-06-30T03:07:33.922Z,97813.65
2018-06-30T03:08:05.569Z,97810.41
2018-06-30T03:08:37.181Z,97825.64
2018-06-30T03:09:08.769Z,97820.95
2018-06-30T03:09:40.368Z,97814.16
2018-06-30T03:10:11.958Z,97820.19
2018-06-30T03:10:43.538Z,97821.11
2018-06-30T03:11:15.143Z,97818.98
2018-06-30T03:11:46.991Z,97826.75
2018-06-30T03:12:18.589Z,97819.08
2018-06-30T03:12:50.189Z,97823.38
2018-06-30T03:13:21.781Z,97828.16
2018-06-30T03:13:53.385Z,97825.61
2018-06-30T03:14:24.990Z,97829.52
2018-06-30T03:14:56.601Z,97822.70
2018-06-30T03:15:28.190Z,97823.12
2018-06-30T03:15:59.774Z,97827.41
2018-06-30T03:16:31.381Z,97821.87
2018-06-30T03:17:02.990Z,97828.70
2018-06-30T03:17:34.588Z,97826.19
2018-06-30T03:18:06.193Z,97823.63
2018-06-30T03:18:37.787Z,97823.20
2018-06-30T03:19:09.361Z,97824.51
2018-06-30T03:19:40.933Z,97824.09
2018-06-30T03:20:12.527Z,97822.80
2018-06-30T03:20:44.153Z,97820.23
2018-06-30T03:21:15.786Z,97823.66
2018-06-30T03:21:47.379Z,97827.09
2018-06-30T03:22:18.957Z,97825.81
2018-06-30T03:22:50.536Z,97827.09
2018-06-30T03:23:22.118Z,97827.95
2018-06-30T03:23:53.692Z,97827.53
2018-06-30T03:24:25.273Z,97826.67
2018-06-30T03:24:56.857Z,97822.41
2018-06-30T03:25:28.517Z,97829.23
2018-06-30T03:26:00.104Z,97821.59
2018-06-30T03:26:31.690Z,97830.56
2018-06-30T03:27:03.303Z,97831.01
2018-06-30T03:27:34.899Z,97827.59
2018-06-30T03:28:06.505Z,97824.59
2018-06-30T03:28:38.117Z,97829.72
2018-06-30T03:29:09.729Z,97825.03
2018-06-30T03:29:41.317Z,97824.62
2018-06-30T03:30:12.902Z,97827.59
2018-06-30T03:30:44.531Z,97829.33
2018-06-30T03:31:16.105Z,97826.78
2018-06-30T03:31:47.731Z,97825.50
2018-06-30T03:32:19.341Z,97822.49
2018-06-30T03:32:50.973Z,97828.06
2018-06-30T03:33:22.573Z,97835.73
2018-06-30T03:33:54.176Z,97823.35
2018-06-30T03:34:25.757Z,97827.63
2018-06-30T03:34:57.347Z,97833.17
2018-06-30T03:35:28.953Z,97830.17
2018-06-30T03:36:00.541Z,97831.03
2018-06-30T03:36:32.142Z,97830.59
2018-06-30T03:37:03.734Z,97830.63
2018-06-30T03:37:35.314Z,97825.91
2018-06-30T03:38:06.946Z,97826.34
2018-06-30T03:38:38.564Z,97827.63
2018-06-30T03:39:10.162Z,97825.11
2018-06-30T03:39:41.735Z,97826.34
2018-06-30T03:40:13.322Z,97826.78
2018-06-30T03:40:44.926Z,97825.50
2018-06-30T03:41:16.538Z,97831.47
2018-06-30T03:41:48.150Z,97830.63
2018-06-30T03:42:19.748Z,97833.19
2018-06-30T03:42:51.385Z,97828.95
2018-06-30T03:43:23.014Z,97831.52
2018-06-30T03:43:54.609Z,97834.08
2018-06-30T03:44:26.203Z,97836.23
2018-06-30T03:44:57.789Z,97830.67
2018-06-30T03:45:29.397Z,97838.32
2018-06-30T03:46:01.026Z,97834.47
2018-06-30T03:46:32.620Z,97839.56
2018-06-30T03:47:04.234Z,97836.91
2018-06-30T03:47:35.867Z,97838.97
2018-06-30T03:48:07.509Z,97840.23
2018-06-30T03:48:39.120Z,97838.48
2018-06-30T03:49:10.701Z,97841.86
2018-06-30T03:49:42.295Z,97846.13
2018-06-30T03:50:13.901Z,97837.58
2018-06-30T03:50:45.517Z,97843.55
2018-06-30T03:51:17.110Z,97845.67
2018-06-30T03:51:48.713Z,97842.62
2018-06-30T03:52:20.301Z,97846.47
2018-06-30T03:52:51.876Z,97837.06
2018-06-30T03:53:23.501Z,97837.06
2018-06-30T03:53:55.077Z,97844.34
2018-06-30T03:54:26.687Z,97839.69
2018-06-30T03:54:58.337Z,97836.25
2018-06-30T03:55:29.945Z,97841.83
2018-06-30T03:56:01.524Z,97840.05
2018-06-30T03:56:33.110Z,97847.80
2018-06-30T03:57:04.704Z,97846.09
2018-06-30T03:57:36.353Z,97839.21
2018-06-30T03:58:07.951Z,97846.89
2018-06-30T03:58:39.537Z,97843.95
2018-06-30T03:59:11.136Z,97848.17
2018-06-30T03:59:42.735Z,97846.89
2018-06-30T04:00:14.318Z,97844.74
2018-06-30T04:00:45.916Z,97845.61
2018-06-30T04:01:17.534Z,97842.60
2018-06-30T04:01:49.122Z,97846.03
2018-06-30T04:02:20.730Z,97848.16
2018-06-30T04:02:52.381Z,97844.73
2018-06-30T04:03:23.965Z,97842.60
2018-06-30T04:03:55.557Z,97839.16
2018-06-30T04:04:27.152Z,97846.38
2018-06-30T04:04:58.737Z,97841.72
2018-06-30T04:05:30.342Z,97842.16
2018-06-30T04:06:01.925Z,97845.16
2018-06-30T04:06:33.529Z,97842.60
2018-06-30T04:07:05.142Z,97844.74
2018-06-30T04:07:36.801Z,97845.61
2018-06-30T04:08:08.446Z,97841.83
2018-06-30T04:08:40.053Z,97845.63
2018-06-30T04:09:11.632Z,97847.40
2018-06-30T04:09:43.221Z,97848.70
2018-06-30T04:10:14.791Z,97847.84
2018-06-30T04:10:46.388Z,97852.59
2018-06-30T04:11:17.998Z,97847.57
2018-06-30T04:11:49.607Z,97848.77
2018-06-30T04:12:21.197Z,97851.33
2018-06-30T04:12:52.777Z,97846.64
2018-06-30T04:13:24.397Z,97849.20
2018-06-30T04:13:55.967Z,97855.64
2018-06-30T04:14:27.569Z,97854.36
2018-06-30T04:14:59.196Z,97855.22
2018-06-30T04:15:30.800Z,97855.22
2018-06-30T04:16:02.393Z,97859.53
2018-06-30T04:16:33.969Z,97858.64
2018-06-30T04:17:05.578Z,97861.61
2018-06-30T04:17:37.151Z,97852.23
2018-06-30T04:18:08.728Z,97860.40
2018-06-30T04:18:40.300Z,97856.98
2018-06-30T04:19:11.869Z,97869.81
2018-06-30T04:19:43.454Z,97864.69
2018-06-30T04:20:15.098Z,97868.11
2018-06-30T04:20:46.710Z,97865.55
2018-06-30T04:21:18.294Z,97865.97
2018-06-30T04:21:49.927Z,97869.39
2018-06-30T04:22:21.533Z,97867.69
2018-06-30T04:22:53.112Z,97865.13
2018-06-30T04:23:24.703Z,97865.55
2018-06-30T04:23:56.286Z,97871.12
2018-06-30T04:24:27.906Z,97867.27
2018-06-30T04:24:59.509Z,97871.12
2018-06-30T04:25:31.150Z,97874.10
2018-06-30T04:26:02.741Z,97874.55
2018-06-30T04:26:34.336Z,97871.54
2018-06-30T04:27:05.986Z,97874.52
2018-06-30T04:27:37.598Z,97880.45
2018-06-30T04:28:09.176Z,97874.92
2018-06-30T04:28:40.773Z,97874.92
2018-06-30T04:29:12.378Z,97874.51
2018-06-30T04:29:43.976Z,97874.52
2018-06-30T04:30:15.625Z,97874.52
2018-06-30T04:30:47.200Z,97875.39
2018-06-30T04:31:18.795Z,97876.67
2018-06-30T04:31:50.368Z,97875.41
2018-06-30T04:32:21.956Z,97874.97
2018-06-30T04:32:53.560Z,97877.13
2018-06-30T04:33:25.132Z,97881.39
2018-06-30T04:33:56.721Z,97879.30
2018-06-30T04:34:28.306Z,97878.88
2018-06-30T04:34:59.950Z,97881.45
2018-06-30T04:35:31.552Z,97878.04
2018-06-30T04:36:03.138Z,97888.30
2018-06-30T04:36:34.762Z,97876.77
2018-06-30T04:37:06.366Z,97875.06
2018-06-30T04:37:37.982Z,97878.49
2018-06-30T04:38:09.575Z,97878.49
2018-06-30T04:38:41.187Z,97875.51
2018-06-30T04:39:12.769Z,97876.80
2018-06-30T04:39:44.354Z,97871.71
2018-06-30T04:40:15.929Z,97871.29
2018-06-30T04:40:47.529Z,97884.53
2018-06-30T04:41:19.110Z,97875.56
2018-06-30T04:41:50.717Z,97877.28
2018-06-30T04:42:22.354Z,97879.42
2018-06-30T04:42:54.010Z,97875.14
2018-06-30T04:43:25.593Z,97881.05
2018-06-30T04:43:57.170Z,97879.73
2018-06-30T04:44:28.753Z,97875.83
2018-06-30T04:45:00.322Z,97874.52
2018-06-30T04:45:31.961Z,97874.45
2018-06-30T04:46:03.541Z,97877.00
2018-06-30T04:46:35.131Z,97874.84
2018-06-30T04:47:06.721Z,97874.84
2018-06-30T04:47:38.366Z,97876.55
2018-06-30T04:48:09.966Z,97881.19
2018-06-30T04:48:41.540Z,97882.89
2018-06-30T04:49:13.145Z,97882.47
2018-06-30T04:49:44.753Z,97882.01
2018-06-30T04:50:16.337Z,97884.52
2018-06-30T04:50:47.918Z,97887.93
2018-06-30T04:51:19.497Z,97877.23
2018-06-30T04:51:51.085Z,97886.98
2018-06-30T04:52:22.694Z,97887.79
2018-06-30T04:52:54.325Z,97888.14
2018-06-30T04:53:25.907Z,97888.50
2018-06-30T04:53:57.480Z,97891.83
2018-06-30T04:54:29.082Z,97887.52
2018-06-30T04:55:00.665Z,97891.30
2018-06-30T04:55:32.252Z,97892.13
2018-06-30T04:56:03.842Z,97884.36
2018-06-30T04:56:35.497Z,97889.45
2018-06-30T04:57:07.082Z,97891.16
2018-06-30T04:57:38.734Z,97887.27
2018-06-30T04:58:10.309Z,97890.72
2018-06-30T04:58:41.922Z,97885.59
2018-06-30T04:59:13.530Z,97886.88
2018-06-30T04:59:45.132Z,97890.73
2018-06-30T05:00:16.741Z,97886.47
2018-06-30T05:00:48.329Z,97892.46
2018-06-30T05:01:19.909Z,97891.18
2018-06-30T05:01:51.527Z,97895.89
2018-06-30T05:02:23.119Z,97897.17
2018-06-30T05:02:54.719Z,97895.89
2018-06-30T05:03:26.350Z,97895.03
2018-06-30T05:03:57.937Z,97890.34
2018-06-30T05:04:29.533Z,97886.06
2018-06-30T05:05:01.117Z,97894.19
2018-06-30T05:05:32.692Z,97897.17
2018-06-30T05:06:04.278Z,97894.61
2018-06-30T05:06:35.886Z,97896.73
2018-06-30T05:07:07.477Z,97895.89
2018-06-30T05:07:39.085Z,97890.31
2018-06-30T05:08:10.693Z,97894.59
2018-06-30T05:08:42.349Z,97895.88
2018-06-30T05:09:14.024Z,97895.03
2018-06-30T05:09:45.592Z,97897.16
2018-06-30T05:10:17.201Z,97898.00
2018-06-30T05:10:48.795Z,97903.55
2018-06-30T05:11:20.403Z,97899.72
2018-06-30T05:11:52.014Z,97898.00
2018-06-30T05:12:23.602Z,97899.70
2018-06-30T05:12:55.237Z,97897.58
2018-06-30T05:13:26.873Z,97902.22
2018-06-30T05:13:58.458Z,97900.98
2018-06-30T05:14:30.039Z,97906.50
2018-06-30T05:15:01.651Z,97905.22
2018-06-30T05:15:33.251Z,97900.09
2018-06-30T05:16:04.858Z,97900.09
2018-06-30T05:16:36.465Z,97901.84
2018-06-30T05:17:08.064Z,97903.14
2018-06-30T05:17:39.674Z,97905.27
2018-06-30T05:18:11.272Z,97903.14
2018-06-30T05:18:42.933Z,97903.57
2018-06-30T05:19:14.508Z,97898.88
2018-06-30T05:19:46.099Z,97900.59
2018-06-30T05:20:17.686Z,97903.61
2018-06-30T05:20:49.338Z,97907.44
2018-06-30T05:21:20.945Z,97902.74
2018-06-30T05:21:52.531Z,97903.61
2018-06-30T05:22:24.124Z,97902.33
2018-06-30T05:22:55.713Z,97904.09
2018-06-30T05:23:27.311Z,97902.80
2018-06-30T05:23:58.921Z,97906.22
2018-06-30T05:24:30.570Z,97907.97
2018-06-30T05:25:02.181Z,97909.25
2018-06-30T05:25:33.794Z,97905.40
2018-06-30T05:26:05.389Z,97903.27
2018-06-30T05:26:36.986Z,97912.67
2018-06-30T05:27:08.578Z,97908.88
2018-06-30T05:27:40.158Z,97909.73
2018-06-30T05:28:11.761Z,97909.73
2018-06-30T05:28:43.355Z,97913.61
2018-06-30T05:29:14.950Z,97903.36
2018-06-30T05:29:46.547Z,97914.91
2018-06-30T05:30:18.127Z,97907.21
2018-06-30T05:30:49.718Z,97908.93
2018-06-30T05:31:21.320Z,97912.34
2018-06-30T05:31:52.950Z,97914.48
2018-06-30T05:32:24.573Z,97911.05
2018-06-30T05:32:56.145Z,97912.36
2018-06-30T05:33:27.826Z,97909.31
2018-06-30T05:33:59.359Z,97913.50
2018-06-30T05:34:30.946Z,97912.13
2018-06-30T05:35:02.530Z,97911.64
2018-06-30T05:35:34.127Z,97911.17
2018-06-30T05:36:05.710Z,97909.44
2018-06-30T05:36:37.311Z,97903.83
2018-06-30T05:37:08.969Z,97908.97
2018-06-30T05:37:40.553Z,97910.67
2018-06-30T05:38:12.202Z,97904.23
2018-06-30T05:38:43.787Z,97902.95
2018-06-30T05:39:15.370Z,97908.10
2018-06-30T05:39:46.950Z,97916.64
2018-06-30T05:40:18.519Z,97902.97
2018-06-30T05:40:50.112Z,97906.38
2018-06-30T05:41:21.721Z,97910.25
2018-06-30T05:41:53.346Z,97911.11
2018-06-30T05:42:24.940Z,97916.66
2018-06-30T05:42:56.557Z,97912.39
2018-06-30T05:43:28.145Z,97905.98
2018-06-30T05:43:59.716Z,97912.44
2018-06-30T05:44:31.283Z,97916.30
2018-06-30T05:45:02.910Z,97913.32
2018-06-30T05:45:34.494Z,97905.70
2018-06-30T05:46:06.088Z,97914.27
2018-06-30T05:46:37.693Z,97915.63
2018-06-30T05:47:09.277Z,97917.79
2018-06-30T05:47:40.884Z,97918.67
2018-06-30T05:48:12.460Z,97916.59
2018-06-30T05:48:44.061Z,97919.17
2018-06-30T05:49:15.665Z,97919.20
2018-06-30T05:49:47.249Z,97918.41
2018-06-30T05:50:18.833Z,97926.12
2018-06-30T05:50:50.461Z,97923.98
2018-06-30T05:51:22.052Z,97918.91
2018-06-30T05:51:53.637Z,97921.49
2018-06-30T05:52:25.221Z,97922.36
2018-06-30T05:52:56.806Z,97917.30
2018-06-30T05:53:28.389Z,97919.86
2018-06-30T05:53:59.958Z,97923.72
2018-06-30T05:54:31.564Z,97924.14
2018-06-30T05:55:03.136Z,97927.15
2018-06-30T05:55:34.789Z,97927.15
2018-06-30T05:56:06.378Z,97923.76
2018-06-30T05:56:37.985Z,97924.60
2018-06-30T05:57:09.568Z,97920.77
2018-06-30T05:57:41.173Z,97925.52
2018-06-30T05:58:12.781Z,97922.11
2018-06-30T05:58:44.387Z,97913.08
2018-06-30T05:59:16.014Z,97921.69
2018-06-30T05:59:47.601Z,97920.41
2018-06-30T06:00:19.168Z,97927.25
2018-06-30T06:00:50.776Z,97922.55
2018-06-30T06:01:22.372Z,97922.56
2018-06-30T06:01:53.984Z,97920.84
2018-06-30T06:02:25.569Z,97920.00
2018-06-30T06:02:57.154Z,97920.00
2018-06-30T06:03:28.756Z,97923.86
2018-06-30T06:04:00.351Z,97922.14
2018-06-30T06:04:31.933Z,97920.41
2018-06-30T06:05:03.550Z,97923.34
2018-06-30T06:05:35.119Z,97921.24
2018-06-30T06:06:06.712Z,97924.67
2018-06-30T06:06:38.317Z,97922.95
2018-06-30T06:07:09.925Z,97925.09
2018-06-30T06:07:41.510Z,97923.39
2018-06-30T06:08:13.093Z,97920.83
2018-06-30T06:08:44.668Z,97920.41
2018-06-30T06:09:16.274Z,97920.42
2018-06-30T06:09:47.959Z,97918.70
2018-06-30T06:10:19.496Z,97922.55
2018-06-30T06:10:51.068Z,97922.56